Lucas Lucero

Recruteur en chef - Racing
4 Déc 2028
Lundi
Processus

Personnalité

Adaptabilité (4) Ambition (16) Controverse (18) Loyauté (1) Pression (2) Professionnalisme (8) Sportivité (8) Tempérament (20)

Profil

Style d'entraînement Démocratique
Diplôme Continental Pro
Détermination 5
Gestion des joueurs 3
Motivation 6
Discipline 5
Satisfaction professionnelle
100%
Fatigue
0%
Rôle Recruteur en chef
Salaire 14.7K p/s
Contrat 14.03.2029

Performance

Comportement Bon
Efficacité de l'entraînement
15%
Développement des joueurs
25%
Prévention des blessures
20%
Mise en place tactique
15%

Événements récents

A participé à une réunion de recrutement 7j
A participé à une réunion de recrutement 14j
A participé à une réunion de recrutement 21j
A participé à une réunion de recrutement 28j
A participé à une réunion de recrutement 35j
A participé à une réunion de recrutement 42j
A participé à une réunion de recrutement 49j
A participé à une réunion de recrutement 56j

Suivi en cours

138
Joueur Club Statut Capacité Confiance Observé Dernière observation Dernier vote
Nahuel Acosta Progreso Actif 104 / 88 40% 1 27.11.2026 -
Tomás Ferreyra Defensores Unidos Actif 99 / 99 40% 1 27.11.2026 -
Ignacio Yepez Cerrito Actif 111 / 114 40% 1 26.11.2026 -
Facundo Perdomo Liverpool Montevideo Actif 106 / 100 40% 3 25.11.2026 -
Facundo Ardiles Estudiantes Actif 118 / 103 40% 2 25.11.2026 -
Luis Olivera Defensores Unidos Actif 118 / 95 40% 1 23.11.2026 -
Juan Manuel Carrizo Chaco For Ever Actif 100 / 104 40% 1 22.11.2026 -
Santiago Gutiérrez Alvarado Actif 111 / 111 40% 1 22.11.2026 -
Gali Balanta Deportes Tolima Actif 85 / 104 40% 2 20.11.2026 -
Augusto Gallo Fenix Actif 94 / 108 40% 2 20.11.2026 -
Martín Sarrafiore O'Higgins Actif 122 / 107 40% 3 17.11.2026 -
Santiago Ramírez Deportivo Maldonado Actif 90 / 91 40% 1 17.11.2026 -
Franco Troyansky Audax Italiano Actif 102 / 112 40% 1 16.11.2026 -
Lawrence Ennali Houston Dynamo Actif 103 / 120 40% 1 16.11.2026 -
Lucas Meuli Unión de Santa Fe Actif 93 / 109 40% 2 15.11.2026 -
Agustín Chopitea Colon Actif 97 / 108 40% 1 14.11.2026 -
Sebastián Tormo Deportivo Maldonado Actif 87 / 90 40% 1 14.11.2026 -
Anderson Brum Tacuarembo Actif 86 / 86 40% 1 13.11.2026 -
Facundo Melillán Güemes Actif 112 / 121 40% 1 13.11.2026 -
Adrián Acosta Portuguesa Actif 83 / 92 40% 1 13.11.2026 -
Federico Viera Artigas Actif 63 / 77 40% 2 12.11.2026 -
Fernando Camarda Central Espanol Actif 105 / 109 40% 1 11.11.2026 -
Nicolás Henry Tristán Suárez Actif 107 / 107 40% 1 10.11.2026 -
Maicol Ferreira Danubio Actif 108 / 108 40% 1 09.11.2026 -
Elías Ayala Madryn Actif 100 / 107 40% 1 09.11.2026 -
Jonathan Villagra Colo-Colo Actif 111 / 111 40% 1 08.11.2026 -
Miguel Silva Carabobo Actif 106 / 97 40% 3 07.11.2026 -
Matías Vera Nueva Chicago Actif 109 / 93 40% 1 07.11.2026 -
Agustín Aguirre Boston River Actif 98 / 96 40% 1 07.11.2026 -
Fabián Palomino Ayacucho Actif 89 / 84 40% 1 06.11.2026 -
Lucas Ymbert Uruguay Montevideo Actif 95 / 87 40% 1 06.11.2026 -
Guido Sosa Atenas Actif 91 / 113 40% 2 05.11.2026 -
Luciano Jachfe Nueva Chicago Actif 116 / 125 40% 3 05.11.2026 -
Braian Aranda Agropecuario Argentino Actif 109 / 123 40% 1 05.11.2026 -
Yael Delgado Queretaro Actif 64 / 69 40% 1 04.11.2026 -
Juan Moreno La Luz Actif 106 / 128 40% 2 03.11.2026 -
Aldo Pérez Guarani Actif 100 / 121 40% 1 03.11.2026 -
Nahuel Pezzini Arsenal Actif 120 / 120 40% 1 01.11.2026 -
Diego Villalba Plaza Colonia Actif 107 / 87 40% 1 01.11.2026 -
Francisco Funes Los Andes Actif 106 / 86 40% 1 01.11.2026 -
Matías Bazzi Talleres Actif 105 / 111 40% 1 31.10.2026 -
Diego Carreño O'Higgins Actif 79 / 95 40% 2 30.10.2026 -
Facundo Silvera Montevideo City Torque Actif 102 / 93 40% 3 30.10.2026 -
Facundo Silvestre Uruguay Montevideo Actif 91 / 105 40% 1 30.10.2026 -
Gonzalo Silva Progreso Actif 97 / 115 40% 2 28.10.2026 -
Bastián Yáñez O'Higgins Actif 114 / 104 40% 1 26.10.2026 -
Camilo Machado Madryn Actif 111 / 117 40% 1 26.10.2026 -
Santiago Briñone San Martín Actif 100 / 121 40% 1 24.10.2026 -
Emiliano Bermúdez Oriental Actif 96 / 104 40% 2 23.10.2026 -
Ángel Espínola Sportivo Luqueno Actif 105 / 94 40% 1 23.10.2026 -
Fabrizio Correa Juventud Actif 127 / 108 40% 1 22.10.2026 -
Cristhofer Mesías Universidad de Concepcion Actif 107 / 92 40% 1 21.10.2026 -
Ignacio Rodríguez Central Espanol Actif 100 / 119 40% 1 21.10.2026 -
Ignacio Núñez Union Espanola Actif 99 / 94 40% 1 20.10.2026 -
Pedro Silva Torrejón Gimnasia La Plata Actif 128 / 111 40% 1 19.10.2026 -
Yamil García Rampla Juniors Actif 94 / 95 40% 1 19.10.2026 -
Jeremías Rodríguez Puch Atlanta Actif 97 / 116 40% 1 18.10.2026 -
Matías Bergara Nueva Chicago Actif 120 / 127 40% 1 16.10.2026 -
Milton Gerez Güemes Actif 96 / 101 40% 1 16.10.2026 -
Emiliano Ancheta Nacional Actif 127 / 107 40% 1 15.10.2026 -
Ian Wisdom Sporting Cristal Actif 90 / 112 40% 1 14.10.2026 -
Alexis Sinisterra Sol de America Actif 71 / 95 40% 1 13.10.2026 -
Vasco Espejo Alianza Lima Actif 78 / 84 40% 1 11.10.2026 -
Enzo Cabrera Danubio Actif 118 / 122 40% 1 11.10.2026 -
Franco Martínez Artigas Actif 96 / 87 40% 3 10.10.2026 -
Agustín Benítez Defensores Actif 123 / 112 40% 1 10.10.2026 -
Tomás Castro Ponce Atlanta Actif 110 / 113 40% 1 09.10.2026 -
Joaquín Trasante Danubio Actif 116 / 105 40% 2 07.10.2026 -
Iván Chaves Patronato Actif 88 / 105 40% 1 07.10.2026 -
Nahuel González Alvarado Actif 95 / 110 40% 3 06.10.2026 -
Brian Calderara Chacarita Juniors Actif 122 / 131 40% 1 06.10.2026 -
Aldhy Valencia Cesar Vallejo Actif 69 / 80 40% 1 05.10.2026 -
Emiliano Jourdan Cerro Largo Actif 99 / 98 40% 1 02.10.2026 -
Jairo Amaro Cerro Actif 104 / 114 40% 1 02.10.2026 -
Santiago Direnna Miramar Misiones Actif 64 / 80 40% 1 01.10.2026 -
Kevin Lewis Liverpool Montevideo Actif 109 / 99 40% 1 01.10.2026 -
Elías Villar Nacional Actif 77 / 85 40% 2 28.09.2026 -
Nicolás Rossi Juventud Actif 115 / 112 40% 3 27.09.2026 -
Oscar Meza Portuguesa Actif 97 / 82 40% 1 27.09.2026 -
Emiliano González Almagro Actif 116 / 111 40% 1 26.09.2026 -
Santiago Roggero Gimnasia y Esgrima Actif 101 / 119 40% 1 25.09.2026 -
Alejandro Gonzalez Atletico Venezuela Actif 63 / 90 40% 1 25.09.2026 -
Isaac Méndez Central Espanol Actif 108 / 94 40% 1 25.09.2026 -
Julio López Defensores Unidos Actif 113 / 101 40% 1 25.09.2026 -
Nicolás Fernandez Universidad de Chile Actif 103 / 107 40% 2 23.09.2026 -
Francisco Facello Chacarita Juniors Actif 102 / 106 40% 1 23.09.2026 -
Francisco Casanova Cerrito Actif 106 / 93 40% 2 22.09.2026 -
Agustín Solari 12 de Octubre Actif 89 / 92 40% 1 22.09.2026 -
Kevin Castro Bogota Actif 94 / 89 40% 1 21.09.2026 -
Maico Quiroz Güemes Actif 118 / 121 40% 2 20.09.2026 -
Agustín Olavarría Colon Actif 96 / 103 40% 1 20.09.2026 -
Luis Barbat Cerrito Actif 83 / 85 40% 1 20.09.2026 -
Franco Quinteros Estudiantes Actif 119 / 111 40% 1 20.09.2026 -
Brahian Cuello Unión de Santa Fe Actif 108 / 115 40% 1 19.09.2026 -
Jhojan Torres Santa Fe Actif 115 / 108 40% 1 18.09.2026 -
Adrián Montañez Deportivo Tachira Actif 93 / 112 40% 1 17.09.2026 -
Sebastián Giraldo Depor Actif 74 / 89 40% 2 16.09.2026 -
Claudio Torres Huachipato Actif 104 / 98 40% 1 16.09.2026 -
Dylan Lozano Aguilas Doradas Actif 110 / 97 40% 1 16.09.2026 -
Gastón Vega Artigas Actif 73 / 88 40% 1 14.09.2026 -
Luis Corredor Zulia Actif 87 / 88 40% 1 14.09.2026 -
Juan Díaz Universidad Catolica Actif 115 / 116 40% 1 12.09.2026 -
Gonzalo Gamarra Defensores Actif 120 / 120 40% 1 12.09.2026 -
Antonio Martínez Cerro Porteno Actif 90 / 89 40% 1 12.09.2026 -
Juan Esteban Gallego Once Caldas Actif 82 / 96 40% 1 11.09.2026 -
Felipe Espinoza Iquique Actif 85 / 88 40% 1 10.09.2026 -
Juan Camilo Mosquera Atletico Bucaramanga Actif 117 / 128 40% 1 10.09.2026 -
Martín Ginzo Deportivo Maldonado Actif 110 / 100 40% 1 10.09.2026 -
Gabriel Chocobar Oriental Actif 91 / 105 40% 1 07.09.2026 -
Roameth Romaña Llaneros Actif 106 / 88 40% 2 06.09.2026 -
Francisco Mongelos Sportivo Luqueno Actif 83 / 91 40% 3 04.09.2026 -
Esteban Glellel Quilmes Actif 115 / 114 40% 1 03.09.2026 -
Agustín Requena Progreso Actif 111 / 111 40% 1 02.09.2026 -
Nicolás Forastiero Deportivo Maldonado Actif 92 / 94 40% 2 30.08.2026 -
Carlos Romaña Atletico Bucaramanga Actif 108 / 99 40% 1 30.08.2026 -
Santiago Cuero Fortaleza CEIF Actif 104 / 102 40% 1 24.08.2026 -
Aldair Gutiérrez Atletico Bucaramanga Actif 122 / 126 40% 1 24.08.2026 -
Santiago Costa Albion Actif 115 / 120 40% 1 23.08.2026 -
Cristián Díaz Antofagasta Actif 83 / 106 40% 1 23.08.2026 -
Omar Mireles Veracruz Actif 97 / 113 40% 1 20.08.2026 -
Rodrigo Melgarejo Nacional Actif 105 / 84 40% 1 20.08.2026 -
Marber Suárez Zulia Actif 84 / 84 40% 1 19.08.2026 -
Maximiliano Zelaya Miramar Misiones Actif 81 / 107 40% 1 19.08.2026 -
Germán Peralta La Luz Actif 104 / 94 40% 1 16.08.2026 -
Ángel Maciel Tacuarembo Actif 104 / 106 40% 1 13.08.2026 -
Agustín Pérez Juventud Actif 83 / 108 40% 1 11.08.2026 -
Leandro Umpiérrez Penarol Actif 114 / 117 40% 1 10.08.2026 -
Adrián Vila Rampla Juniors Actif 95 / 97 40% 1 10.08.2026 -
Yeferson Moreno Barranquilla Actif 104 / 124 40% 1 09.08.2026 -
Christopher Montaña Portuguesa Actif 88 / 92 40% 1 09.08.2026 -
Facundo Briñón Atenas Actif 89 / 90 40% 1 08.08.2026 -
Nicolás Lara Tigres Actif 107 / 112 40% 1 07.08.2026 -
Mateo Rivero Boston River Actif 102 / 112 40% 1 06.08.2026 -
Alexander Hernández Racing Actif 86 / 99 40% 1 06.08.2026 -
Lucas Bassadone Atenas Actif 81 / 90 40% 1 05.08.2026 -
Pablo Cardona Cortulua Actif 115 / 109 40% 1 05.08.2026 -
Joiner Moreno Real Cartagena Actif 98 / 96 40% 1 03.08.2026 -
Juan González River Plate Actif 75 / 71 40% 1 03.08.2026 -